createdAt,value
2018-11-25T00:00:29.671Z,26.50
2018-11-25T00:02:59.150Z,24.53
2018-11-25T00:05:28.616Z,24.93
2018-11-25T00:07:59.037Z,25.60
2018-11-25T00:10:28.768Z,24.87
2018-11-25T00:12:58.031Z,25.47
2018-11-25T00:15:27.155Z,24.50
2018-11-25T00:17:56.612Z,26.30
2018-11-25T00:20:26.622Z,25.30
2018-11-25T00:22:56.170Z,26.03
2018-11-25T00:25:25.592Z,24.20
2018-11-25T00:27:55.206Z,26.13
2018-11-25T00:30:24.446Z,26.53
2018-11-25T00:32:54.717Z,24.40
2018-11-25T00:35:24.529Z,27.10
2018-11-25T00:37:54.108Z,25.20
2018-11-25T00:40:23.304Z,25.97
2018-11-25T00:42:52.740Z,26.17
2018-11-25T00:45:22.587Z,26.23
2018-11-25T00:47:52.233Z,24.27
2018-11-25T00:50:21.768Z,23.57
2018-11-25T00:52:51.249Z,25.23
2018-11-25T00:55:20.989Z,22.50
2018-11-25T00:57:50.644Z,24.67
2018-11-25T01:00:20.752Z,24.13
2018-11-25T01:02:50.893Z,23.43
2018-11-25T01:05:20.762Z,24.17
2018-11-25T01:07:49.999Z,24.23
2018-11-25T01:10:19.699Z,23.57
2018-11-25T01:12:49.167Z,25.23
2018-11-25T01:15:18.684Z,23.97
2018-11-25T01:17:48.462Z,24.10
2018-11-25T01:20:21.241Z,23.40
2018-11-25T01:22:50.834Z,24.10
2018-11-25T01:25:20.631Z,24.27
2018-11-25T01:27:50.218Z,22.70
2018-11-25T01:30:19.748Z,25.80
2018-11-25T01:32:50.212Z,24.67
2018-11-25T01:35:19.415Z,24.87
2018-11-25T01:37:48.817Z,23.83
2018-11-25T01:40:19.194Z,24.00
2018-11-25T01:42:48.843Z,23.53
2018-11-25T01:45:18.899Z,23.37
2018-11-25T01:47:48.341Z,23.80
2018-11-25T01:50:19.111Z,25.53
2018-11-25T01:52:48.487Z,23.97
2018-11-25T01:55:18.497Z,24.60
2018-11-25T01:57:47.724Z,23.60
2018-11-25T02:00:19.124Z,23.53
2018-11-25T02:02:48.485Z,23.13
2018-11-25T02:05:17.846Z,22.93
2018-11-25T02:07:47.272Z,23.97
2018-11-25T02:10:18.261Z,22.80
2018-11-25T02:12:47.664Z,23.60
2018-11-25T02:15:17.370Z,24.00
2018-11-25T02:17:46.731Z,22.37
2018-11-25T02:20:24.475Z,24.47
2018-11-25T02:22:54.967Z,22.63
2018-11-25T02:25:24.309Z,22.47
2018-11-25T02:27:53.448Z,23.20
2018-11-25T02:30:22.664Z,21.97
2018-11-25T02:32:51.977Z,21.10
2018-11-25T02:35:21.236Z,23.93
2018-11-25T02:37:50.526Z,22.73
2018-11-25T02:40:20.077Z,23.93
2018-11-25T02:42:49.476Z,23.30
2018-11-25T02:45:19.510Z,23.60
2018-11-25T02:47:49.123Z,22.13
2018-11-25T02:50:27.401Z,22.20
2018-11-25T02:53:02.873Z,21.63
2018-11-25T02:55:32.177Z,19.50
2018-11-25T02:58:01.437Z,23.10
2018-11-25T03:00:30.580Z,21.93
2018-11-25T03:02:59.942Z,19.87
2018-11-25T03:05:29.278Z,20.53
2018-11-25T03:07:58.470Z,23.07
2018-11-25T03:10:27.656Z,23.70
2018-11-25T03:12:56.935Z,22.77
2018-11-25T03:15:26.163Z,23.83
2018-11-25T03:17:55.580Z,22.00
2018-11-25T03:20:24.892Z,21.17
2018-11-25T03:22:54.084Z,19.43
2018-11-25T03:25:23.224Z,19.33
2018-11-25T03:27:52.410Z,20.70
2018-11-25T03:30:22.175Z,21.30
2018-11-25T03:32:53.260Z,20.13
2018-11-25T03:35:22.586Z,16.30
2018-11-25T03:37:52.073Z,19.33
2018-11-25T03:40:21.640Z,17.67
2018-11-25T03:42:50.884Z,20.77
2018-11-25T03:45:21.044Z,21.10
2018-11-25T03:47:50.413Z,22.57
2018-11-25T03:50:19.686Z,20.40
2018-11-25T03:52:48.869Z,23.07
2018-11-25T03:55:18.499Z,22.93
2018-11-25T03:57:47.942Z,20.87
2018-11-25T04:00:19.346Z,21.33
2018-11-25T04:02:49.202Z,22.10
2018-11-25T04:05:18.686Z,19.50
2018-11-25T04:07:48.085Z,19.90
2018-11-25T04:10:19.136Z,20.80
2018-11-25T04:12:48.534Z,23.70
2018-11-25T04:15:18.485Z,20.13
2018-11-25T04:17:48.232Z,22.60
2018-11-25T04:20:19.333Z,21.33
2018-11-25T04:22:48.846Z,23.30
2018-11-25T04:25:18.092Z,21.50
2018-11-25T04:27:47.540Z,19.00
2018-11-25T04:30:18.817Z,21.33
2018-11-25T04:32:49.261Z,22.23
2018-11-25T04:35:18.792Z,21.83
2018-11-25T04:37:48.235Z,21.37
2018-11-25T04:40:18.576Z,22.30
2018-11-25T04:42:48.200Z,19.77
2018-11-25T04:45:18.342Z,20.70
2018-11-25T04:47:48.965Z,19.90
2018-11-25T04:50:21.362Z,21.13
2018-11-25T04:52:50.661Z,17.73
2018-11-25T04:55:20.220Z,17.93
2018-11-25T04:57:50.267Z,20.30
2018-11-25T05:00:20.425Z,18.27
2018-11-25T05:02:50.894Z,19.43
2018-11-25T05:05:20.356Z,21.43
2018-11-25T05:07:49.727Z,18.63
2018-11-25T05:10:19.431Z,18.00
2018-11-25T05:12:48.732Z,18.70
2018-11-25T05:15:19.409Z,18.43
2018-11-25T05:17:48.738Z,18.43
2018-11-25T05:20:18.729Z,18.80
2018-11-25T05:22:48.057Z,17.03
2018-11-25T05:25:18.484Z,17.50
2018-11-25T05:27:47.747Z,15.20
2018-11-25T05:30:18.430Z,16.83
2018-11-25T05:32:48.054Z,15.77
2018-11-25T05:35:20.629Z,17.13
2018-11-25T05:37:50.072Z,17.13
2018-11-25T05:40:19.680Z,15.90
2018-11-25T05:42:48.913Z,15.63
2018-11-25T05:45:19.130Z,15.83
2018-11-25T05:47:49.029Z,15.07
2018-11-25T05:50:19.313Z,16.07
2018-11-25T05:52:48.761Z,16.17
2018-11-25T05:55:18.061Z,15.57
2018-11-25T05:57:47.612Z,16.63
2018-11-25T06:00:23.896Z,16.70
2018-11-25T06:02:53.855Z,15.77
2018-11-25T06:05:23.118Z,15.43
2018-11-25T06:07:52.524Z,15.60
2018-11-25T06:10:21.926Z,15.23
2018-11-25T06:12:51.388Z,16.30
2018-11-25T06:15:20.766Z,15.93
2018-11-25T06:17:49.966Z,16.03
2018-11-25T06:20:19.195Z,15.23
2018-11-25T06:22:48.487Z,16.27
2018-11-25T06:25:18.988Z,16.27
2018-11-25T06:27:48.161Z,15.70
2018-11-25T06:30:19.290Z,15.23
2018-11-25T06:32:48.782Z,17.47
2018-11-25T06:35:18.969Z,15.60
2018-11-25T06:37:47.999Z,16.77
2018-11-25T06:40:19.390Z,15.10
2018-11-25T06:42:48.566Z,13.40
2018-11-25T06:45:23.004Z,16.00
2018-11-25T06:47:52.518Z,15.83
2018-11-25T06:50:21.886Z,15.27
2018-11-25T06:52:50.962Z,13.63
2018-11-25T06:55:20.137Z,16.53
2018-11-25T06:57:49.322Z,17.13
2018-11-25T07:00:22.608Z,15.13
2018-11-25T07:02:52.140Z,15.80
2018-11-25T07:05:21.780Z,16.33
2018-11-25T07:07:51.187Z,16.83
2018-11-25T07:10:22.459Z,15.93
2018-11-25T07:12:55.328Z,17.30
2018-11-25T07:15:24.708Z,15.77
2018-11-25T07:17:53.856Z,16.83
2018-11-25T07:20:23.137Z,16.17
2018-11-25T07:22:54.119Z,16.63
2018-11-25T07:25:23.046Z,16.57
2018-11-25T07:27:52.777Z,15.23
2018-11-25T07:30:26.005Z,15.87
2018-11-25T07:32:56.397Z,16.60
2018-11-25T07:35:27.097Z,15.83
2018-11-25T07:37:56.501Z,16.53
2018-11-25T07:40:26.475Z,16.00
2018-11-25T07:42:56.568Z,15.73
2018-11-25T07:45:30.494Z,16.83
2018-11-25T07:47:56.988Z,15.27
2018-11-25T07:50:26.487Z,15.87
2018-11-25T07:52:56.161Z,16.40
2018-11-25T07:55:26.176Z,15.40
2018-11-25T07:57:58.301Z,15.47
2018-11-25T08:00:28.116Z,15.93
2018-11-25T08:02:58.090Z,16.53
2018-11-25T08:05:28.736Z,16.00
2018-11-25T08:07:58.113Z,16.00
2018-11-25T08:10:28.391Z,15.07
2018-11-25T08:12:57.959Z,15.70
2018-11-25T08:15:27.773Z,15.93
2018-11-25T08:17:57.472Z,15.87
2018-11-25T08:20:27.391Z,16.83
2018-11-25T08:22:57.052Z,16.43
2018-11-25T08:25:27.006Z,15.53
2018-11-25T08:27:57.001Z,17.13
2018-11-25T08:30:26.489Z,16.10
2018-11-25T08:32:56.417Z,16.63
2018-11-25T08:35:26.224Z,17.10
2018-11-25T08:37:55.811Z,17.73
2018-11-25T08:40:25.790Z,17.47
2018-11-25T08:42:55.659Z,16.33
2018-11-25T08:45:25.674Z,16.17
2018-11-25T08:47:56.154Z,16.77
2018-11-25T08:50:26.186Z,15.93
2018-11-25T08:52:56.439Z,17.10
2018-11-25T08:55:26.681Z,13.73
2018-11-25T08:57:56.542Z,17.33
2018-11-25T09:00:27.399Z,16.00
2018-11-25T09:03:00.326Z,17.17
2018-11-25T09:05:30.794Z,17.10
2018-11-25T09:08:00.591Z,17.63
2018-11-25T09:10:30.522Z,17.07
2018-11-25T09:13:00.071Z,17.13
2018-11-25T09:15:31.394Z,18.03
2018-11-25T09:18:00.918Z,18.43
2018-11-25T09:20:30.613Z,18.13
2018-11-25T09:23:00.307Z,19.10
2018-11-25T09:25:33.271Z,18.13
2018-11-25T09:28:04.160Z,19.03
2018-11-25T09:30:34.625Z,20.47
2018-11-25T09:33:04.039Z,18.90
2018-11-25T09:35:33.440Z,20.43
2018-11-25T09:38:03.413Z,20.47
2018-11-25T09:40:33.021Z,24.37
2018-11-25T09:43:02.846Z,19.73
2018-11-25T09:45:32.766Z,21.63
2018-11-25T09:48:02.822Z,23.60
2018-11-25T09:50:32.572Z,20.67
2018-11-25T09:53:03.131Z,21.33
2018-11-25T09:55:33.807Z,20.10
2018-11-25T09:58:02.681Z,21.60
2018-11-25T10:00:34.392Z,22.50
2018-11-25T10:03:04.701Z,21.00
2018-11-25T10:05:34.385Z,20.43
2018-11-25T10:08:03.964Z,23.20
2018-11-25T10:10:33.359Z,24.50
2018-11-25T10:13:02.998Z,22.77
2018-11-25T10:15:32.836Z,23.13
2018-11-25T10:18:02.669Z,23.93
2018-11-25T10:20:33.058Z,22.70
2018-11-25T10:23:02.781Z,24.07
2018-11-25T10:25:32.626Z,23.43
2018-11-25T10:28:02.404Z,24.20
2018-11-25T10:30:32.479Z,24.10
2018-11-25T10:33:06.992Z,24.03
2018-11-25T10:35:37.106Z,24.20
2018-11-25T10:38:06.941Z,24.67
2018-11-25T10:40:36.635Z,23.37
2018-11-25T10:43:06.127Z,23.27
2018-11-25T10:45:35.638Z,23.30
2018-11-25T10:48:05.525Z,23.50
2018-11-25T10:50:35.500Z,25.77
2018-11-25T10:53:05.740Z,24.93
2018-11-25T10:55:36.173Z,26.03
2018-11-25T10:58:06.222Z,26.07
2018-11-25T11:00:42.348Z,25.57
2018-11-25T11:03:17.763Z,24.60
2018-11-25T11:05:53.040Z,25.97
2018-11-25T11:08:23.798Z,25.10
2018-11-25T11:10:53.562Z,27.67
2018-11-25T11:13:23.817Z,25.90
2018-11-25T11:15:55.188Z,27.63
2018-11-25T11:18:27.182Z,29.67
2018-11-25T11:20:57.010Z,25.43
2018-11-25T11:23:28.251Z,26.83
2018-11-25T11:25:58.177Z,28.50
2018-11-25T11:28:28.384Z,29.10
2018-11-25T11:30:58.235Z,27.87
2018-11-25T11:33:27.948Z,26.73
2018-11-25T11:35:58.132Z,28.87
2018-11-25T11:38:28.022Z,28.93
2018-11-25T11:40:57.990Z,28.57
2018-11-25T11:43:27.983Z,28.00
2018-11-25T11:45:58.157Z,29.30
2018-11-25T11:48:28.401Z,27.20
2018-11-25T11:50:58.742Z,27.57
2018-11-25T11:53:28.156Z,26.53
2018-11-25T11:55:58.426Z,27.60
2018-11-25T11:58:28.684Z,26.33
2018-11-25T12:00:58.346Z,28.53
2018-11-25T12:03:28.414Z,28.67
2018-11-25T12:05:58.408Z,28.17
2018-11-25T12:08:28.030Z,27.27
2018-11-25T12:10:58.945Z,28.90
2018-11-25T12:13:28.588Z,29.50
2018-11-25T12:15:58.476Z,29.70
2018-11-25T12:18:28.166Z,29.27
2018-11-25T12:20:58.523Z,30.20
2018-11-25T12:23:28.673Z,30.70
2018-11-25T12:25:58.694Z,30.17
2018-11-25T12:28:28.237Z,30.47
2018-11-25T12:30:58.500Z,27.80
2018-11-25T12:33:28.208Z,27.30
2018-11-25T12:35:58.798Z,29.17
2018-11-25T12:38:28.999Z,28.30
2018-11-25T12:40:58.706Z,29.70
2018-11-25T12:43:28.432Z,32.07
2018-11-25T12:45:58.106Z,28.93
2018-11-25T12:48:27.602Z,28.00
2018-11-25T12:50:57.157Z,28.33
2018-11-25T12:53:26.920Z,29.03
2018-11-25T12:55:56.553Z,29.53
2018-11-25T12:58:26.043Z,30.00
2018-11-25T13:00:55.426Z,26.80
2018-11-25T13:03:25.598Z,27.37
2018-11-25T13:05:55.536Z,27.73
2018-11-25T13:08:25.944Z,30.43
2018-11-25T13:10:55.936Z,29.47
2018-11-25T13:13:25.889Z,31.27
2018-11-25T13:15:55.412Z,27.20
2018-11-25T13:18:25.020Z,29.03
2018-11-25T13:20:54.626Z,28.60
2018-11-25T13:23:24.336Z,32.33
2018-11-25T13:25:54.004Z,32.23
2018-11-25T13:28:23.496Z,32.80
2018-11-25T13:30:53.040Z,33.27
2018-11-25T13:33:22.453Z,29.77
2018-11-25T13:35:52.144Z,31.47
2018-11-25T13:38:21.387Z,30.80
2018-11-25T13:40:50.734Z,30.77
2018-11-25T13:43:20.393Z,30.73
2018-11-25T13:45:49.982Z,56.17
2018-11-25T13:48:19.556Z,34.33
2018-11-25T13:50:49.409Z,32.53
2018-11-25T13:53:18.850Z,32.30
2018-11-25T13:55:48.335Z,31.17
2018-11-25T13:58:17.908Z,38.57
2018-11-25T14:00:49.451Z,30.50
2018-11-25T14:03:20.606Z,32.03
2018-11-25T14:05:53.042Z,31.90
2018-11-25T14:08:19.561Z,27.73
2018-11-25T14:10:49.165Z,32.53
2018-11-25T14:13:19.494Z,34.47
2018-11-25T14:15:48.971Z,30.23
2018-11-25T14:18:18.187Z,32.23
2018-11-25T14:20:48.128Z,31.43
2018-11-25T14:23:17.550Z,33.43
2018-11-25T14:25:46.927Z,38.00
2018-11-25T14:28:16.912Z,33.27
2018-11-25T14:30:46.191Z,29.80
2018-11-25T14:33:15.349Z,31.67
2018-11-25T14:35:44.567Z,31.43
2018-11-25T14:38:13.932Z,32.00
2018-11-25T14:40:43.121Z,31.63
2018-11-25T14:43:12.407Z,32.07
2018-11-25T14:45:41.780Z,32.80
2018-11-25T14:48:11.189Z,30.50
2018-11-25T14:50:40.398Z,36.63
2018-11-25T14:53:09.818Z,34.83
2018-11-25T14:55:40.660Z,32.63
2018-11-25T14:58:10.173Z,30.73
2018-11-25T15:00:39.365Z,32.50
2018-11-25T15:03:08.776Z,31.07
2018-11-25T15:05:42.585Z,32.93
2018-11-25T15:08:13.551Z,30.33
2018-11-25T15:10:42.645Z,29.63
2018-11-25T15:13:11.765Z,28.90
2018-11-25T15:15:40.962Z,30.53
2018-11-25T15:18:10.388Z,34.00
2018-11-25T15:20:39.598Z,28.90
2018-11-25T15:23:11.135Z,32.50
2018-11-25T15:25:47.969Z,29.83
2018-11-25T15:28:17.835Z,32.60
2018-11-25T15:30:47.048Z,25.37
2018-11-25T15:33:16.213Z,30.23
2018-11-25T15:35:45.562Z,30.70
2018-11-25T15:38:14.721Z,32.10
2018-11-25T15:40:43.891Z,29.70
2018-11-25T15:43:13.227Z,30.07
2018-11-25T15:45:42.498Z,32.93
2018-11-25T15:48:17.507Z,30.43
2018-11-25T15:50:46.713Z,29.43
2018-11-25T15:53:16.079Z,30.80
2018-11-25T15:55:46.567Z,32.23
2018-11-25T15:58:15.794Z,30.20
2018-11-25T16:00:45.043Z,32.23
2018-11-25T16:03:16.018Z,32.23
2018-11-25T16:05:48.123Z,31.60
2018-11-25T16:08:17.284Z,32.57
2018-11-25T16:10:46.629Z,30.67
2018-11-25T16:13:15.837Z,29.97
2018-11-25T16:15:44.978Z,38.00
2018-11-25T16:18:14.463Z,40.53
2018-11-25T16:20:43.811Z,46.47
2018-11-25T16:23:13.186Z,39.17
2018-11-25T16:25:43.999Z,39.23
2018-11-25T16:28:19.994Z,41.50
2018-11-25T16:30:49.286Z,39.20
2018-11-25T16:33:18.547Z,35.90
2018-11-25T16:35:47.739Z,32.47
2018-11-25T16:38:17.114Z,36.23
2018-11-25T16:40:46.455Z,35.50
2018-11-25T16:43:15.902Z,34.27
2018-11-25T16:45:45.215Z,35.47
2018-11-25T16:48:14.474Z,36.50
2018-11-25T16:50:43.752Z,34.03
2018-11-25T16:53:13.105Z,34.83
2018-11-25T16:55:42.439Z,38.17
2018-11-25T16:58:11.812Z,36.70
2018-11-25T17:00:41.492Z,35.77
2018-11-25T17:03:10.688Z,34.57
2018-11-25T17:05:42.999Z,33.33
2018-11-25T17:08:15.761Z,31.40
2018-11-25T17:10:45.217Z,34.70
2018-11-25T17:13:14.334Z,28.00
2018-11-25T17:15:43.772Z,30.03
2018-11-25T17:18:13.088Z,24.77
2018-11-25T17:20:42.365Z,30.40
2018-11-25T17:23:11.612Z,34.30
2018-11-25T17:25:41.185Z,32.87
2018-11-25T17:28:11.195Z,28.20
2018-11-25T17:30:45.415Z,33.13
2018-11-25T17:33:14.741Z,31.03
2018-11-25T17:35:43.967Z,33.70
2018-11-25T17:38:13.756Z,32.17
2018-11-25T17:40:44.058Z,30.50
2018-11-25T17:43:17.982Z,32.07
2018-11-25T17:45:47.790Z,34.00
2018-11-25T17:48:17.277Z,34.73
2018-11-25T17:50:46.819Z,36.37
2018-11-25T17:53:20.610Z,39.37
2018-11-25T17:55:45.768Z,31.43
2018-11-25T17:58:15.273Z,33.53
2018-11-25T18:00:48.716Z,38.70
2018-11-25T18:03:24.451Z,37.13
2018-11-25T18:05:53.766Z,35.17
2018-11-25T18:08:22.927Z,35.50
2018-11-25T18:10:52.254Z,34.13
2018-11-25T18:13:23.036Z,36.87
2018-11-25T18:15:53.584Z,36.93
2018-11-25T18:18:31.120Z,36.13
2018-11-25T18:21:03.706Z,32.90
2018-11-25T18:23:33.008Z,34.87
2018-11-25T18:26:02.271Z,33.13
2018-11-25T18:28:31.592Z,35.67
2018-11-25T18:31:00.840Z,34.40
2018-11-25T18:33:30.432Z,30.73
2018-11-25T18:35:59.789Z,35.27
2018-11-25T18:38:29.041Z,36.40
2018-11-25T18:40:58.248Z,39.70
2018-11-25T18:43:27.782Z,40.20
2018-11-25T18:45:59.369Z,36.33
2018-11-25T18:48:27.195Z,33.03
2018-11-25T18:50:56.629Z,32.53
2018-11-25T18:53:25.906Z,34.43
2018-11-25T18:55:55.302Z,31.60
2018-11-25T18:58:24.464Z,34.57
2018-11-25T19:00:56.207Z,33.60
2018-11-25T19:03:25.384Z,34.93
2018-11-25T19:05:54.901Z,31.33
2018-11-25T19:08:24.122Z,33.53
2018-11-25T19:10:53.909Z,30.03
2018-11-25T19:13:23.489Z,33.27
2018-11-25T19:15:53.030Z,32.20
2018-11-25T19:18:22.826Z,28.37
2018-11-25T19:20:52.229Z,30.77
2018-11-25T19:23:21.639Z,32.47
2018-11-25T19:25:50.872Z,32.53
2018-11-25T19:28:20.323Z,32.00
2018-11-25T19:30:49.816Z,32.37
2018-11-25T19:33:19.108Z,27.93
2018-11-25T19:35:48.397Z,33.07
2018-11-25T19:38:17.966Z,34.77
2018-11-25T19:40:47.368Z,28.73
2018-11-25T19:43:16.864Z,30.60
2018-11-25T19:45:46.356Z,32.93
2018-11-25T19:48:15.696Z,31.37
2018-11-25T19:50:45.022Z,30.97
2018-11-25T19:53:14.292Z,29.47
2018-11-25T19:55:43.680Z,29.17
2018-11-25T19:58:12.854Z,30.53
2018-11-25T20:00:42.416Z,30.70
2018-11-25T20:03:11.677Z,31.67
2018-11-25T20:05:40.953Z,33.90
2018-11-25T20:08:10.320Z,31.47
2018-11-25T20:10:39.629Z,29.97
2018-11-25T20:13:09.998Z,33.47
2018-11-25T20:15:39.352Z,31.97
2018-11-25T20:18:09.826Z,29.53
2018-11-25T20:20:39.172Z,32.97
2018-11-25T20:23:08.443Z,25.03
2018-11-25T20:25:37.912Z,30.90
2018-11-25T20:28:07.333Z,31.10
2018-11-25T20:30:36.646Z,30.07
2018-11-25T20:33:11.810Z,30.83
2018-11-25T20:35:41.299Z,33.50
2018-11-25T20:38:15.863Z,33.17
2018-11-25T20:40:45.291Z,33.23
2018-11-25T20:43:14.913Z,31.47
2018-11-25T20:45:49.675Z,30.77
2018-11-25T20:48:19.057Z,31.63
2018-11-25T20:50:48.509Z,30.07
2018-11-25T20:53:23.129Z,27.80
2018-11-25T20:55:52.376Z,30.50
2018-11-25T20:58:21.812Z,31.47
2018-11-25T21:00:51.223Z,32.13
2018-11-25T21:03:20.776Z,31.53
2018-11-25T21:05:50.381Z,33.73
2018-11-25T21:08:19.901Z,30.37
2018-11-25T21:10:49.945Z,32.07
2018-11-25T21:13:19.434Z,32.00
2018-11-25T21:15:48.988Z,31.53
2018-11-25T21:18:18.449Z,29.43
2018-11-25T21:20:51.293Z,30.03
2018-11-25T21:23:17.467Z,29.30
2018-11-25T21:25:46.898Z,30.00
2018-11-25T21:28:17.115Z,28.00
2018-11-25T21:30:46.599Z,31.10
2018-11-25T21:33:18.367Z,27.70
2018-11-25T21:35:47.984Z,34.10
2018-11-25T21:38:17.783Z,31.10
2018-11-25T21:40:47.564Z,30.40
2018-11-25T21:43:17.123Z,30.77
2018-11-25T21:45:46.865Z,33.57
2018-11-25T21:48:17.169Z,31.93
2018-11-25T21:50:47.103Z,30.30
2018-11-25T21:53:16.797Z,31.50
2018-11-25T21:55:46.666Z,32.80
2018-11-25T21:58:16.211Z,31.43
2018-11-25T22:00:45.497Z,28.63
2018-11-25T22:03:14.996Z,31.30
2018-11-25T22:05:44.397Z,29.10
2018-11-25T22:08:13.753Z,28.37
2018-11-25T22:10:43.017Z,31.50
2018-11-25T22:13:12.392Z,29.23
2018-11-25T22:15:41.665Z,31.10
2018-11-25T22:18:10.946Z,30.43
2018-11-25T22:20:40.429Z,26.07
2018-11-25T22:23:10.044Z,29.37
2018-11-25T22:25:39.431Z,31.10
2018-11-25T22:28:08.835Z,27.80
2018-11-25T22:30:38.357Z,30.87
2018-11-25T22:33:07.645Z,31.30
2018-11-25T22:35:37.137Z,31.30
2018-11-25T22:38:07.081Z,27.97
2018-11-25T22:40:36.386Z,26.10
2018-11-25T22:43:05.796Z,32.33
2018-11-25T22:45:35.328Z,29.43
2018-11-25T22:48:04.673Z,33.80
2018-11-25T22:50:33.921Z,26.20
2018-11-25T22:53:03.311Z,32.67
2018-11-25T22:55:32.757Z,30.73
2018-11-25T22:58:02.146Z,29.53
2018-11-25T23:00:33.225Z,32.40
2018-11-25T23:03:02.513Z,33.07
2018-11-25T23:05:43.041Z,30.13
2018-11-25T23:08:12.401Z,31.47
2018-11-25T23:10:41.569Z,29.30
2018-11-25T23:13:10.885Z,31.77
2018-11-25T23:15:40.297Z,31.17
2018-11-25T23:18:09.641Z,30.40
2018-11-25T23:20:38.953Z,32.10
2018-11-25T23:23:08.309Z,35.10
2018-11-25T23:25:37.533Z,31.37
2018-11-25T23:28:06.988Z,28.30
2018-11-25T23:30:36.293Z,29.43
2018-11-25T23:33:05.595Z,27.97
2018-11-25T23:35:35.273Z,30.93
2018-11-25T23:38:04.553Z,31.10
2018-11-25T23:40:33.923Z,33.23
2018-11-25T23:43:03.426Z,31.33
2018-11-25T23:45:32.919Z,30.73
2018-11-25T23:48:02.350Z,29.37
2018-11-25T23:50:31.605Z,31.13
2018-11-25T23:53:00.883Z,30.87
2018-11-25T23:55:30.161Z,29.30
2018-11-25T23:58:03.339Z,30.27
